sensor_id;sensor_type;location;lat;lon;timestamp;pressure;altitude;pressure_sealevel;temperature;humidity
77013;BME280;65946;53.130;17.982;2022-12-18T00:01:05;102713.80;;;-3.30;75.79
77013;BME280;65946;53.130;17.982;2022-12-18T00:03:43;102712.56;;;-3.26;75.75
77013;BME280;65946;53.130;17.982;2022-12-18T00:06:10;102713.52;;;-3.24;75.79
77013;BME280;65946;53.130;17.982;2022-12-18T00:08:37;102721.02;;;-3.25;75.87
77013;BME280;65946;53.130;17.982;2022-12-18T00:11:11;102722.43;;;-3.30;75.95
77013;BME280;65946;53.130;17.982;2022-12-18T00:13:39;102721.28;;;-3.39;76.23
77013;BME280;65946;53.130;17.982;2022-12-18T00:16:12;102723.32;;;-3.42;76.19
77013;BME280;65946;53.130;17.982;2022-12-18T00:18:39;102728.44;;;-3.40;76.21
77013;BME280;65946;53.130;17.982;2022-12-18T00:21:09;102730.44;;;-3.38;76.15
77013;BME280;65946;53.130;17.982;2022-12-18T00:23:37;102729.02;;;-3.37;76.12
77013;BME280;65946;53.130;17.982;2022-12-18T00:26:07;102729.39;;;-3.34;76.12
77013;BME280;65946;53.130;17.982;2022-12-18T00:28:36;102727.91;;;-3.32;76.06
77013;BME280;65946;53.130;17.982;2022-12-18T00:31:08;102735.66;;;-3.31;76.13
77013;BME280;65946;53.130;17.982;2022-12-18T00:33:36;102746.92;;;-3.31;76.14
77013;BME280;65946;53.130;17.982;2022-12-18T00:38:29;102736.73;;;-3.36;76.18
77013;BME280;65946;53.130;17.982;2022-12-18T00:40:56;102754.33;;;-3.38;76.26
77013;BME280;65946;53.130;17.982;2022-12-18T00:43:23;102749.92;;;-3.36;76.18
77013;BME280;65946;53.130;17.982;2022-12-18T00:45:50;102750.58;;;-3.32;75.97
77013;BME280;65946;53.130;17.982;2022-12-18T00:48:16;102766.33;;;-3.27;75.96
77013;BME280;65946;53.130;17.982;2022-12-18T00:50:43;102763.76;;;-3.24;75.93
77013;BME280;65946;53.130;17.982;2022-12-18T00:53:11;102763.65;;;-3.21;75.94
77013;BME280;65946;53.130;17.982;2022-12-18T00:55:39;102768.11;;;-3.20;75.84
77013;BME280;65946;53.130;17.982;2022-12-18T00:58:06;102764.20;;;-3.22;75.88
77013;BME280;65946;53.130;17.982;2022-12-18T01:00:32;102767.86;;;-3.22;75.88
77013;BME280;65946;53.130;17.982;2022-12-18T01:02:59;102765.67;;;-3.24;75.85
77013;BME280;65946;53.130;17.982;2022-12-18T01:05:27;102769.80;;;-3.23;75.90
77013;BME280;65946;53.130;17.982;2022-12-18T01:07:55;102771.59;;;-3.24;76.00
77013;BME280;65946;53.130;17.982;2022-12-18T01:10:23;102777.48;;;-3.28;75.99
77013;BME280;65946;53.130;17.982;2022-12-18T01:12:51;102793.05;;;-3.32;76.11
77013;BME280;65946;53.130;17.982;2022-12-18T01:15:19;102791.06;;;-3.30;76.03
77013;BME280;65946;53.130;17.982;2022-12-18T01:17:46;102785.48;;;-3.25;76.00
77013;BME280;65946;53.130;17.982;2022-12-18T01:20:13;102783.41;;;-3.21;75.95
77013;BME280;65946;53.130;17.982;2022-12-18T01:22:40;102782.90;;;-3.18;75.93
77013;BME280;65946;53.130;17.982;2022-12-18T01:25:08;102781.05;;;-3.15;75.93
77013;BME280;65946;53.130;17.982;2022-12-18T01:27:35;102785.45;;;-3.17;75.84
77013;BME280;65946;53.130;17.982;2022-12-18T01:30:04;102794.77;;;-3.20;75.81
77013;BME280;65946;53.130;17.982;2022-12-18T01:32:31;102792.51;;;-3.19;75.85
77013;BME280;65946;53.130;17.982;2022-12-18T01:34:58;102801.33;;;-3.23;76.05
77013;BME280;65946;53.130;17.982;2022-12-18T01:37:27;102808.08;;;-3.27;76.01
77013;BME280;65946;53.130;17.982;2022-12-18T01:39:54;102810.63;;;-3.30;75.89
77013;BME280;65946;53.130;17.982;2022-12-18T01:42:21;102811.16;;;-3.30;75.98
77013;BME280;65946;53.130;17.982;2022-12-18T01:47:52;102809.17;;;-3.24;76.05
77013;BME280;65946;53.130;17.982;2022-12-18T01:50:25;102807.18;;;-3.18;75.76
77013;BME280;65946;53.130;17.982;2022-12-18T01:52:56;102805.85;;;-3.16;75.72
77013;BME280;65946;53.130;17.982;2022-12-18T01:55:26;102809.63;;;-3.15;75.58
77013;BME280;65946;53.130;17.982;2022-12-18T01:57:56;102808.34;;;-3.17;75.63
77013;BME280;65946;53.130;17.982;2022-12-18T02:00:25;102812.19;;;-3.18;75.69
77013;BME280;65946;53.130;17.982;2022-12-18T02:02:52;102817.80;;;-3.19;75.84
77013;BME280;65946;53.130;17.982;2022-12-18T02:16:44;102828.38;;;-3.28;75.60
77013;BME280;65946;53.130;17.982;2022-12-18T02:19:39;102835.80;;;-3.31;75.77
77013;BME280;65946;53.130;17.982;2022-12-18T02:22:24;102838.47;;;-3.28;75.59
77013;BME280;65946;53.130;17.982;2022-12-18T02:27:45;102833.82;;;-3.21;75.40
77013;BME280;65946;53.130;17.982;2022-12-18T02:30:13;102841.90;;;-3.20;75.51
77013;BME280;65946;53.130;17.982;2022-12-18T02:32:45;102852.42;;;-3.23;75.61
77013;BME280;65946;53.130;17.982;2022-12-18T02:35:22;102856.05;;;-3.26;75.44
77013;BME280;65946;53.130;17.982;2022-12-18T02:37:51;102858.14;;;-3.27;75.52
77013;BME280;65946;53.130;17.982;2022-12-18T02:40:22;102860.54;;;-3.26;75.46
77013;BME280;65946;53.130;17.982;2022-12-18T02:42:50;102865.50;;;-3.25;75.44
77013;BME280;65946;53.130;17.982;2022-12-18T02:45:17;102867.73;;;-3.28;75.53
77013;BME280;65946;53.130;17.982;2022-12-18T02:47:47;102863.08;;;-3.33;75.58
77013;BME280;65946;53.130;17.982;2022-12-18T02:58:07;102857.61;;;-3.47;75.97
77013;BME280;65946;53.130;17.982;2022-12-18T03:00:42;102855.42;;;-3.45;75.79
77013;BME280;65946;53.130;17.982;2022-12-18T03:03:30;102860.84;;;-3.42;75.88
77013;BME280;65946;53.130;17.982;2022-12-18T03:06:44;102856.27;;;-3.44;75.90
77013;BME280;65946;53.130;17.982;2022-12-18T03:09:21;102862.77;;;-3.46;75.79
77013;BME280;65946;53.130;17.982;2022-12-18T03:12:07;102867.93;;;-3.45;75.89
77013;BME280;65946;53.130;17.982;2022-12-18T03:15:17;102877.52;;;-3.47;75.90
77013;BME280;65946;53.130;17.982;2022-12-18T03:18:08;102880.27;;;-3.47;75.94
77013;BME280;65946;53.130;17.982;2022-12-18T03:20:39;102883.44;;;-3.48;75.85
77013;BME280;65946;53.130;17.982;2022-12-18T03:23:19;102882.25;;;-3.48;75.96
77013;BME280;65946;53.130;17.982;2022-12-18T03:25:47;102879.92;;;-3.38;75.75
77013;BME280;65946;53.130;17.982;2022-12-18T03:28:20;102878.02;;;-3.34;75.68
77013;BME280;65946;53.130;17.982;2022-12-18T03:30:56;102883.52;;;-3.33;75.69
77013;BME280;65946;53.130;17.982;2022-12-18T03:33:25;102885.83;;;-3.34;75.67
77013;BME280;65946;53.130;17.982;2022-12-18T03:35:55;102889.84;;;-3.35;75.49
77013;BME280;65946;53.130;17.982;2022-12-18T03:38:22;102895.69;;;-3.38;75.64
77013;BME280;65946;53.130;17.982;2022-12-18T03:43:40;102898.61;;;-3.46;75.75
77013;BME280;65946;53.130;17.982;2022-12-18T03:46:28;102904.59;;;-3.48;75.72
77013;BME280;65946;53.130;17.982;2022-12-18T03:52:38;102909.75;;;-3.43;75.59
77013;BME280;65946;53.130;17.982;2022-12-18T03:55:08;102916.80;;;-3.42;75.58
77013;BME280;65946;53.130;17.982;2022-12-18T03:57:38;102916.93;;;-3.41;75.55
77013;BME280;65946;53.130;17.982;2022-12-18T04:00:12;102919.93;;;-3.38;75.55
77013;BME280;65946;53.130;17.982;2022-12-18T04:02:54;102915.98;;;-3.35;75.52
77013;BME280;65946;53.130;17.982;2022-12-18T04:05:27;102911.14;;;-3.35;75.54
77013;BME280;65946;53.130;17.982;2022-12-18T04:07:56;102913.85;;;-3.37;75.50
77013;BME280;65946;53.130;17.982;2022-12-18T04:10:23;102911.06;;;-3.42;75.44
77013;BME280;65946;53.130;17.982;2022-12-18T04:12:55;102911.64;;;-3.43;75.43
77013;BME280;65946;53.130;17.982;2022-12-18T04:15:22;102913.10;;;-3.45;75.44
77013;BME280;65946;53.130;17.982;2022-12-18T04:17:49;102919.60;;;-3.47;75.35
77013;BME280;65946;53.130;17.982;2022-12-18T04:20:18;102922.64;;;-3.49;75.52
77013;BME280;65946;53.130;17.982;2022-12-18T04:22:46;102923.52;;;-3.45;75.48
77013;BME280;65946;53.130;17.982;2022-12-18T04:25:13;102921.35;;;-3.39;75.33
77013;BME280;65946;53.130;17.982;2022-12-18T04:27:47;102926.25;;;-3.36;75.26
77013;BME280;65946;53.130;17.982;2022-12-18T04:30:14;102929.30;;;-3.34;75.20
77013;BME280;65946;53.130;17.982;2022-12-18T04:32:41;102932.95;;;-3.30;75.16
77013;BME280;65946;53.130;17.982;2022-12-18T04:35:09;102935.65;;;-3.24;75.10
77013;BME280;65946;53.130;17.982;2022-12-18T04:37:38;102934.80;;;-3.20;75.05
77013;BME280;65946;53.130;17.982;2022-12-18T04:40:06;102936.73;;;-3.17;74.96
77013;BME280;65946;53.130;17.982;2022-12-18T04:42:39;102943.27;;;-3.16;74.94
77013;BME280;65946;53.130;17.982;2022-12-18T04:45:07;102943.48;;;-3.17;75.08
77013;BME280;65946;53.130;17.982;2022-12-18T04:47:34;102940.02;;;-3.17;74.85
77013;BME280;65946;53.130;17.982;2022-12-18T04:50:03;102942.77;;;-3.20;74.79
77013;BME280;65946;53.130;17.982;2022-12-18T04:52:31;102945.05;;;-3.25;74.92
77013;BME280;65946;53.130;17.982;2022-12-18T04:54:58;102948.80;;;-3.33;74.82
77013;BME280;65946;53.130;17.982;2022-12-18T04:57:25;102953.83;;;-3.41;74.95
77013;BME280;65946;53.130;17.982;2022-12-18T04:59:52;102955.42;;;-3.50;75.17
77013;BME280;65946;53.130;17.982;2022-12-18T05:02:20;102956.33;;;-3.56;75.20
77013;BME280;65946;53.130;17.982;2022-12-18T05:04:46;102956.86;;;-3.52;74.99
77013;BME280;65946;53.130;17.982;2022-12-18T05:07:13;102958.16;;;-3.50;75.07
77013;BME280;65946;53.130;17.982;2022-12-18T05:09:40;102953.56;;;-3.51;75.05
77013;BME280;65946;53.130;17.982;2022-12-18T05:12:06;102960.46;;;-3.55;74.98
77013;BME280;65946;53.130;17.982;2022-12-18T05:14:33;102964.48;;;-3.60;75.21
77013;BME280;65946;53.130;17.982;2022-12-18T05:17:00;102967.80;;;-3.66;75.31
77013;BME280;65946;53.130;17.982;2022-12-18T05:19:26;102976.11;;;-3.70;75.42
77013;BME280;65946;53.130;17.982;2022-12-18T05:21:53;102981.25;;;-3.73;75.53
77013;BME280;65946;53.130;17.982;2022-12-18T05:24:20;102982.58;;;-3.76;75.55
77013;BME280;65946;53.130;17.982;2022-12-18T05:26:46;102993.64;;;-3.80;75.58
77013;BME280;65946;53.130;17.982;2022-12-18T05:29:13;102997.27;;;-3.85;75.62
77013;BME280;65946;53.130;17.982;2022-12-18T05:31:40;103002.96;;;-3.89;75.78
77013;BME280;65946;53.130;17.982;2022-12-18T05:34:07;103009.86;;;-3.93;75.64
77013;BME280;65946;53.130;17.982;2022-12-18T05:36:33;103011.83;;;-3.94;75.58
77013;BME280;65946;53.130;17.982;2022-12-18T05:39:00;103013.34;;;-3.93;75.27
77013;BME280;65946;53.130;17.982;2022-12-18T05:41:27;103020.06;;;-3.92;75.18
77013;BME280;65946;53.130;17.982;2022-12-18T05:43:54;103017.95;;;-3.91;75.17
77013;BME280;65946;53.130;17.982;2022-12-18T05:46:21;103022.83;;;-3.92;75.04
77013;BME280;65946;53.130;17.982;2022-12-18T05:48:48;103020.84;;;-3.95;74.86
77013;BME280;65946;53.130;17.982;2022-12-18T05:51:20;103022.77;;;-4.00;74.87
77013;BME280;65946;53.130;17.982;2022-12-18T05:53:47;103028.95;;;-4.04;74.90
77013;BME280;65946;53.130;17.982;2022-12-18T05:56:17;103034.59;;;-4.11;74.90
77013;BME280;65946;53.130;17.982;2022-12-18T05:58:45;103040.48;;;-4.16;74.84
77013;BME280;65946;53.130;17.982;2022-12-18T06:01:18;103036.55;;;-4.22;74.92
77013;BME280;65946;53.130;17.982;2022-12-18T06:03:45;103038.34;;;-4.28;75.03
77013;BME280;65946;53.130;17.982;2022-12-18T06:06:23;103043.52;;;-4.33;75.03
77013;BME280;65946;53.130;17.982;2022-12-18T06:08:51;103048.38;;;-4.39;75.02
77013;BME280;65946;53.130;17.982;2022-12-18T06:11:23;103047.70;;;-4.44;75.00
77013;BME280;65946;53.130;17.982;2022-12-18T06:13:55;103050.14;;;-4.49;75.13
77013;BME280;65946;53.130;17.982;2022-12-18T06:16:22;103053.48;;;-4.56;75.00
77013;BME280;65946;53.130;17.982;2022-12-18T06:18:48;103055.69;;;-4.60;74.95
77013;BME280;65946;53.130;17.982;2022-12-18T06:21:15;103060.07;;;-4.62;75.01
77013;BME280;65946;53.130;17.982;2022-12-18T06:23:42;103072.02;;;-4.63;74.92
77013;BME280;65946;53.130;17.982;2022-12-18T06:26:11;103075.88;;;-4.64;75.04
77013;BME280;65946;53.130;17.982;2022-12-18T06:28:38;103078.65;;;-4.70;75.01
77013;BME280;65946;53.130;17.982;2022-12-18T06:31:05;103079.06;;;-4.77;75.02
77013;BME280;65946;53.130;17.982;2022-12-18T06:33:33;103082.21;;;-4.83;75.05
77013;BME280;65946;53.130;17.982;2022-12-18T06:36:11;103078.44;;;-4.89;75.16
77013;BME280;65946;53.130;17.982;2022-12-18T06:38:41;103084.59;;;-4.98;75.30
77013;BME280;65946;53.130;17.982;2022-12-18T06:41:18;103093.45;;;-5.05;75.22
77013;BME280;65946;53.130;17.982;2022-12-18T06:43:44;103097.58;;;-5.11;75.25
77013;BME280;65946;53.130;17.982;2022-12-18T06:46:12;103096.52;;;-5.15;75.40
77013;BME280;65946;53.130;17.982;2022-12-18T06:48:39;103105.38;;;-5.21;75.52
77013;BME280;65946;53.130;17.982;2022-12-18T06:51:06;103107.73;;;-5.24;75.51
77013;BME280;65946;53.130;17.982;2022-12-18T06:53:33;103108.36;;;-5.29;75.40
77013;BME280;65946;53.130;17.982;2022-12-18T06:56:05;103117.42;;;-5.32;75.50
77013;BME280;65946;53.130;17.982;2022-12-18T06:58:32;103124.58;;;-5.34;75.47
77013;BME280;65946;53.130;17.982;2022-12-18T07:01:01;103128.55;;;-5.34;75.47
77013;BME280;65946;53.130;17.982;2022-12-18T07:03:28;103133.63;;;-5.31;75.64
77013;BME280;65946;53.130;17.982;2022-12-18T07:05:55;103135.02;;;-5.25;75.64
77013;BME280;65946;53.130;17.982;2022-12-18T07:08:22;103140.66;;;-5.23;75.55
77013;BME280;65946;53.130;17.982;2022-12-18T07:10:49;103145.37;;;-5.24;75.59
77013;BME280;65946;53.130;17.982;2022-12-18T07:13:16;103145.20;;;-5.25;75.48
77013;BME280;65946;53.130;17.982;2022-12-18T07:15:43;103144.19;;;-5.26;75.39
77013;BME280;65946;53.130;17.982;2022-12-18T07:18:10;103143.70;;;-5.27;75.50
77013;BME280;65946;53.130;17.982;2022-12-18T07:20:37;103150.41;;;-5.26;75.66
77013;BME280;65946;53.130;17.982;2022-12-18T07:23:04;103154.63;;;-5.22;75.56
77013;BME280;65946;53.130;17.982;2022-12-18T07:25:35;103159.57;;;-5.15;75.27
77013;BME280;65946;53.130;17.982;2022-12-18T07:28:02;103158.06;;;-5.11;74.85
77013;BME280;65946;53.130;17.982;2022-12-18T07:30:29;103152.71;;;-5.11;74.83
77013;BME280;65946;53.130;17.982;2022-12-18T07:32:56;103154.85;;;-5.13;74.60
77013;BME280;65946;53.130;17.982;2022-12-18T07:35:23;103163.34;;;-5.14;74.79
77013;BME280;65946;53.130;17.982;2022-12-18T07:37:49;103177.83;;;-5.13;74.81
77013;BME280;65946;53.130;17.982;2022-12-18T07:40:16;103183.36;;;-5.14;74.70
77013;BME280;65946;53.130;17.982;2022-12-18T07:42:43;103183.68;;;-5.13;74.80
77013;BME280;65946;53.130;17.982;2022-12-18T07:45:10;103186.23;;;-5.12;74.72
77013;BME280;65946;53.130;17.982;2022-12-18T07:47:37;103190.78;;;-5.13;74.58
77013;BME280;65946;53.130;17.982;2022-12-18T07:50:05;103194.70;;;-5.17;74.44
77013;BME280;65946;53.130;17.982;2022-12-18T07:52:32;103192.36;;;-5.20;74.57
77013;BME280;65946;53.130;17.982;2022-12-18T07:54:59;103188.59;;;-5.26;74.41
77013;BME280;65946;53.130;17.982;2022-12-18T07:57:25;103184.27;;;-5.32;74.50
77013;BME280;65946;53.130;17.982;2022-12-18T07:59:52;103183.77;;;-5.33;74.64
77013;BME280;65946;53.130;17.982;2022-12-18T08:02:18;103191.62;;;-5.30;74.75
77013;BME280;65946;53.130;17.982;2022-12-18T08:04:45;103199.91;;;-5.23;74.55
77013;BME280;65946;53.130;17.982;2022-12-18T08:07:12;103205.83;;;-5.19;74.49
77013;BME280;65946;53.130;17.982;2022-12-18T08:09:39;103210.75;;;-5.11;74.36
77013;BME280;65946;53.130;17.982;2022-12-18T08:12:06;103213.77;;;-5.02;74.18
77013;BME280;65946;53.130;17.982;2022-12-18T08:14:33;103210.11;;;-4.95;73.98
77013;BME280;65946;53.130;17.982;2022-12-18T08:16:59;103214.66;;;-4.85;73.95
77013;BME280;65946;53.130;17.982;2022-12-18T08:19:26;103219.92;;;-4.76;73.69
77013;BME280;65946;53.130;17.982;2022-12-18T08:21:52;103218.99;;;-4.75;73.54
77013;BME280;65946;53.130;17.982;2022-12-18T08:24:19;103220.80;;;-4.77;73.37
77013;BME280;65946;53.130;17.982;2022-12-18T08:26:46;103223.41;;;-4.77;73.55
77013;BME280;65946;53.130;17.982;2022-12-18T08:29:13;103223.38;;;-4.77;73.53
77013;BME280;65946;53.130;17.982;2022-12-18T08:31:39;103224.09;;;-4.71;73.56
77013;BME280;65946;53.130;17.982;2022-12-18T08:34:07;103229.29;;;-4.66;73.50
77013;BME280;65946;53.130;17.982;2022-12-18T08:36:34;103237.13;;;-4.68;73.15
77013;BME280;65946;53.130;17.982;2022-12-18T08:39:01;103252.30;;;-4.73;73.27
77013;BME280;65946;53.130;17.982;2022-12-18T08:41:28;103258.27;;;-4.76;73.27
77013;BME280;65946;53.130;17.982;2022-12-18T08:43:55;103259.64;;;-4.81;72.95
77013;BME280;65946;53.130;17.982;2022-12-18T08:46:42;103259.67;;;-4.82;73.10
77013;BME280;65946;53.130;17.982;2022-12-18T08:49:10;103261.21;;;-4.76;72.90
77013;BME280;65946;53.130;17.982;2022-12-18T08:51:37;103262.70;;;-4.73;72.78
77013;BME280;65946;53.130;17.982;2022-12-18T08:54:05;103261.26;;;-4.72;72.90
77013;BME280;65946;53.130;17.982;2022-12-18T08:56:32;103261.17;;;-4.69;72.79
77013;BME280;65946;53.130;17.982;2022-12-18T08:59:00;103260.38;;;-4.65;72.94
77013;BME280;65946;53.130;17.982;2022-12-18T09:01:26;103253.95;;;-4.58;72.74
77013;BME280;65946;53.130;17.982;2022-12-18T09:03:53;103247.33;;;-4.51;72.90
77013;BME280;65946;53.130;17.982;2022-12-18T09:06:22;103244.05;;;-4.41;72.72
77013;BME280;65946;53.130;17.982;2022-12-18T09:08:49;103245.43;;;-4.30;72.48
77013;BME280;65946;53.130;17.982;2022-12-18T09:11:24;103245.06;;;-4.29;72.20
77013;BME280;65946;53.130;17.982;2022-12-18T09:13:52;103242.29;;;-4.34;72.48
77013;BME280;65946;53.130;17.982;2022-12-18T09:16:21;103236.23;;;-4.34;72.72
77013;BME280;65946;53.130;17.982;2022-12-18T09:18:47;103235.23;;;-4.29;72.75
77013;BME280;65946;53.130;17.982;2022-12-18T09:21:17;103230.44;;;-4.20;72.61
77013;BME280;65946;53.130;17.982;2022-12-18T09:23:49;103229.12;;;-4.12;72.34
77013;BME280;65946;53.130;17.982;2022-12-18T09:26:16;103224.41;;;-4.06;72.42
77013;BME280;65946;53.130;17.982;2022-12-18T09:28:43;103226.30;;;-3.95;71.81
77013;BME280;65946;53.130;17.982;2022-12-18T09:31:10;103226.54;;;-3.92;71.62
77013;BME280;65946;53.130;17.982;2022-12-18T09:33:38;103225.75;;;-3.89;71.74
77013;BME280;65946;53.130;17.982;2022-12-18T09:36:07;103226.69;;;-3.86;71.70
77013;BME280;65946;53.130;17.982;2022-12-18T09:38:34;103224.73;;;-3.85;71.45
77013;BME280;65946;53.130;17.982;2022-12-18T09:41:06;103231.06;;;-3.87;71.31
77013;BME280;65946;53.130;17.982;2022-12-18T09:43:48;103235.85;;;-3.86;71.49
77013;BME280;65946;53.130;17.982;2022-12-18T09:46:23;103236.41;;;-3.82;71.47
77013;BME280;65946;53.130;17.982;2022-12-18T09:48:56;103238.37;;;-3.79;71.27
77013;BME280;65946;53.130;17.982;2022-12-18T09:51:43;103241.05;;;-3.76;71.09
77013;BME280;65946;53.130;17.982;2022-12-18T09:54:20;103237.98;;;-3.83;70.79
77013;BME280;65946;53.130;17.982;2022-12-18T09:56:49;103243.75;;;-3.84;70.98
77013;BME280;65946;53.130;17.982;2022-12-18T09:59:22;103237.30;;;-3.83;70.83
77013;BME280;65946;53.130;17.982;2022-12-18T10:01:50;103227.94;;;-3.82;70.88
77013;BME280;65946;53.130;17.982;2022-12-18T10:04:17;103230.07;;;-3.84;70.54
77013;BME280;65946;53.130;17.982;2022-12-18T10:07:05;103223.23;;;-3.86;70.75
77013;BME280;65946;53.130;17.982;2022-12-18T10:12:35;103223.25;;;-3.82;70.80
77013;BME280;65946;53.130;17.982;2022-12-18T10:17:45;103235.67;;;-3.66;70.79
77013;BME280;65946;53.130;17.982;2022-12-18T10:23:26;103235.98;;;-3.35;70.32
77013;BME280;65946;53.130;17.982;2022-12-18T10:26:03;103238.17;;;-3.29;70.12
77013;BME280;65946;53.130;17.982;2022-12-18T10:28:32;103244.64;;;-3.25;70.00
77013;BME280;65946;53.130;17.982;2022-12-18T10:30:59;103249.96;;;-3.24;70.02
77013;BME280;65946;53.130;17.982;2022-12-18T10:33:30;103250.14;;;-3.19;69.97
77013;BME280;65946;53.130;17.982;2022-12-18T10:35:59;103251.10;;;-3.17;69.83
77013;BME280;65946;53.130;17.982;2022-12-18T10:38:29;103247.08;;;-3.16;69.78
77013;BME280;65946;53.130;17.982;2022-12-18T10:44:20;103241.66;;;-3.20;69.61
77013;BME280;65946;53.130;17.982;2022-12-18T10:46:50;103243.10;;;-3.21;69.66
77013;BME280;65946;53.130;17.982;2022-12-18T10:51:49;103250.86;;;-3.15;69.87
77013;BME280;65946;53.130;17.982;2022-12-18T10:54:23;103253.09;;;-3.15;69.72
77013;BME280;65946;53.130;17.982;2022-12-18T10:56:51;103257.02;;;-3.18;69.57
77013;BME280;65946;53.130;17.982;2022-12-18T10:59:18;103260.94;;;-3.16;69.45
77013;BME280;65946;53.130;17.982;2022-12-18T11:01:46;103266.85;;;-3.08;69.59
77013;BME280;65946;53.130;17.982;2022-12-18T11:04:28;103272.30;;;-3.01;69.13
77013;BME280;65946;53.130;17.982;2022-12-18T11:06:58;103271.93;;;-3.05;68.72
77013;BME280;65946;53.130;17.982;2022-12-18T11:09:30;103271.92;;;-3.13;68.73
77013;BME280;65946;53.130;17.982;2022-12-18T11:12:00;103272.86;;;-3.20;68.90
77013;BME280;65946;53.130;17.982;2022-12-18T11:14:50;103277.55;;;-3.25;68.93
77013;BME280;65946;53.130;17.982;2022-12-18T11:17:25;103278.27;;;-3.31;68.93
77013;BME280;65946;53.130;17.982;2022-12-18T11:19:58;103277.39;;;-3.30;69.09
77013;BME280;65946;53.130;17.982;2022-12-18T11:22:31;103280.02;;;-3.26;69.24
77013;BME280;65946;53.130;17.982;2022-12-18T11:25:06;103277.95;;;-3.17;69.09
77013;BME280;65946;53.130;17.982;2022-12-18T11:27:49;103271.93;;;-3.10;68.77
77013;BME280;65946;53.130;17.982;2022-12-18T11:32:51;103255.67;;;-2.87;68.88
77013;BME280;65946;53.130;17.982;2022-12-18T11:35:23;103256.71;;;-2.82;68.28
77013;BME280;65946;53.130;17.982;2022-12-18T11:37:57;103257.48;;;-2.89;68.39
77013;BME280;65946;53.130;17.982;2022-12-18T11:40:29;103253.69;;;-2.89;68.41
77013;BME280;65946;53.130;17.982;2022-12-18T11:43:21;103252.95;;;-2.98;68.54
77013;BME280;65946;53.130;17.982;2022-12-18T11:46:46;103256.03;;;-3.02;68.79
77013;BME280;65946;53.130;17.982;2022-12-18T11:48:49;103258.24;;;-3.01;68.61
77013;BME280;65946;53.130;17.982;2022-12-18T11:51:27;103256.34;;;-3.09;68.74
77013;BME280;65946;53.130;17.982;2022-12-18T11:53:55;103259.31;;;-3.14;68.63
77013;BME280;65946;53.130;17.982;2022-12-18T11:56:35;103269.40;;;-3.25;68.62
77013;BME280;65946;53.130;17.982;2022-12-18T12:01:51;103277.98;;;-3.28;68.78
77013;BME280;65946;53.130;17.982;2022-12-18T12:04:33;103277.66;;;-3.23;68.51
77013;BME280;65946;53.130;17.982;2022-12-18T12:09:46;103279.70;;;-3.32;68.51
77013;BME280;65946;53.130;17.982;2022-12-18T12:21:25;103289.13;;;-3.24;68.42
77013;BME280;65946;53.130;17.982;2022-12-18T12:26:29;103299.59;;;-3.41;68.64
77013;BME280;65946;53.130;17.982;2022-12-18T12:29:20;103302.48;;;-3.40;68.93
77013;BME280;65946;53.130;17.982;2022-12-18T12:32:04;103305.53;;;-3.37;68.78
77013;BME280;65946;53.130;17.982;2022-12-18T12:40:14;103324.81;;;-3.54;68.75
77013;BME280;65946;53.130;17.982;2022-12-18T12:42:56;103329.07;;;-3.57;68.72
77013;BME280;65946;53.130;17.982;2022-12-18T12:45:46;103332.06;;;-3.64;68.56
77013;BME280;65946;53.130;17.982;2022-12-18T12:48:19;103332.92;;;-3.69;68.67
77013;BME280;65946;53.130;17.982;2022-12-18T12:50:47;103336.60;;;-3.70;68.87
77013;BME280;65946;53.130;17.982;2022-12-18T12:53:23;103333.08;;;-3.69;68.75
77013;BME280;65946;53.130;17.982;2022-12-18T12:55:52;103335.97;;;-3.72;68.91
77013;BME280;65946;53.130;17.982;2022-12-18T12:58:38;103339.00;;;-3.80;69.15
77013;BME280;65946;53.130;17.982;2022-12-18T13:01:17;103340.09;;;-3.82;69.32
77013;BME280;65946;53.130;17.982;2022-12-18T13:03:56;103344.41;;;-3.76;69.24
77013;BME280;65946;53.130;17.982;2022-12-18T13:06:37;103344.09;;;-3.72;69.21
77013;BME280;65946;53.130;17.982;2022-12-18T13:09:07;103347.02;;;-3.71;68.89
77013;BME280;65946;53.130;17.982;2022-12-18T13:11:41;103345.98;;;-3.76;68.98
77013;BME280;65946;53.130;17.982;2022-12-18T13:14:30;103337.56;;;-3.84;69.13
77013;BME280;65946;53.130;17.982;2022-12-18T13:22:32;103336.73;;;-4.06;69.50
77013;BME280;65946;53.130;17.982;2022-12-18T13:25:00;103339.70;;;-4.02;69.31
77013;BME280;65946;53.130;17.982;2022-12-18T13:30:54;103330.80;;;-3.94;69.49
77013;BME280;65946;53.130;17.982;2022-12-18T13:36:38;103327.45;;;-3.98;69.53
77013;BME280;65946;53.130;17.982;2022-12-18T13:38:39;103333.02;;;-3.99;69.63
77013;BME280;65946;53.130;17.982;2022-12-18T13:41:25;103337.48;;;-3.98;69.44
77013;BME280;65946;53.130;17.982;2022-12-18T13:43:56;103338.65;;;-4.02;69.59
77013;BME280;65946;53.130;17.982;2022-12-18T13:46:45;103340.45;;;-4.04;69.67
77013;BME280;65946;53.130;17.982;2022-12-18T13:51:52;103331.88;;;-4.12;69.86
77013;BME280;65946;53.130;17.982;2022-12-18T13:54:40;103330.60;;;-4.15;69.84
77013;BME280;65946;53.130;17.982;2022-12-18T13:57:27;103332.09;;;-4.23;70.14
77013;BME280;65946;53.130;17.982;2022-12-18T13:59:55;103331.75;;;-4.35;70.03
77013;BME280;65946;53.130;17.982;2022-12-18T14:02:25;103332.83;;;-4.42;70.20
77013;BME280;65946;53.130;17.982;2022-12-18T14:04:53;103335.61;;;-4.48;70.41
77013;BME280;65946;53.130;17.982;2022-12-18T14:07:25;103334.36;;;-4.53;70.22
77013;BME280;65946;53.130;17.982;2022-12-18T14:09:54;103334.65;;;-4.51;70.24
77013;BME280;65946;53.130;17.982;2022-12-18T14:12:31;103335.54;;;-4.52;70.42
77013;BME280;65946;53.130;17.982;2022-12-18T14:17:50;103342.16;;;-4.53;71.16
77013;BME280;65946;53.130;17.982;2022-12-18T14:20:18;103343.15;;;-4.52;71.21
77013;BME280;65946;53.130;17.982;2022-12-18T14:22:48;103344.64;;;-4.50;71.27
77013;BME280;65946;53.130;17.982;2022-12-18T14:25:21;103346.23;;;-4.57;71.29
77013;BME280;65946;53.130;17.982;2022-12-18T14:28:21;103349.70;;;-4.64;71.54
77013;BME280;65946;53.130;17.982;2022-12-18T14:30:52;103350.94;;;-4.65;71.32